Time;durP1;ratioP1;P1;durP2;ratioP2;P2;SDS_P1;SDS_P2;PMS_P1;PMS_P2;Temp;Humidity;BMP_temperature;BMP_pressure;BME280_temperature;BME280_humidity;BME280_pressure;Samples;Min_cycle;Max_cycle;Signal;HPM_P1;HPM_P2
2023/09/10 00:01:07;;;;;;;5.45;3.42;;;26.00;65.40;;;;;;5015157;28;20037;-87
2023/09/10 00:03:32;;;;;;;4.50;3.22;;;25.90;65.30;;;;;;5021941;28;20480;-85
2023/09/10 00:06:03;;;;;;;5.68;3.88;;;25.90;65.30;;;;;;5020084;28;20033;-84
2023/09/10 00:08:29;;;;;;;6.88;4.10;;;25.90;65.60;;;;;;5020058;28;20108;-86
2023/09/10 00:10:56;;;;;;;5.75;3.72;;;25.90;65.50;;;;;;5020128;28;20116;-86
2023/09/10 00:13:23;;;;;;;4.47;3.50;;;25.90;65.60;;;;;;5020595;28;20037;-86
2023/09/10 00:15:48;;;;;;;4.32;3.75;;;25.80;65.60;;;;;;5002853;28;20374;-85
2023/09/10 00:18:15;;;;;;;3.97;3.55;;;25.80;65.70;;;;;;5020658;28;20037;-86
2023/09/10 00:20:41;;;;;;;4.75;3.53;;;25.80;65.70;;;;;;5020359;28;20042;-82
2023/09/10 00:23:07;;;;;;;4.75;3.67;;;25.80;65.70;;;;;;5019063;28;20050;-81
2023/09/10 00:25:32;;;;;;;5.90;3.45;;;25.70;65.50;;;;;;5021714;28;20046;-82
2023/09/10 00:27:58;;;;;;;5.20;3.40;;;25.70;65.70;;;;;;5022258;28;20481;-82
2023/09/10 00:30:26;;;;;;;3.97;3.20;;;25.70;65.70;;;;;;5020664;28;20038;-85
2023/09/10 00:32:52;;;;;;;4.25;3.22;;;25.70;65.70;;;;;;5021038;28;20072;-84
2023/09/10 00:35:17;;;;;;;5.30;3.38;;;25.70;65.70;;;;;;5029378;28;20493;-88
2023/09/10 00:37:43;;;;;;;4.10;3.60;;;25.70;65.70;;;;;;5040195;28;20392;-86
2023/09/10 00:40:09;;;;;;;5.70;3.53;;;25.70;65.70;;;;;;5026312;28;20486;-86
2023/09/10 00:42:36;;;;;;;5.75;3.53;;;25.60;65.70;;;;;;5020266;28;20482;-86
2023/09/10 00:45:03;;;;;;;6.95;3.42;;;25.60;65.60;;;;;;5020914;28;20042;-86
2023/09/10 00:47:30;;;;;;;9.25;4.30;;;25.50;65.60;;;;;;5020412;28;20065;-86
2023/09/10 00:49:55;;;;;;;5.65;3.80;;;25.50;66.20;;;;;;5020512;28;20030;-86
2023/09/10 00:52:22;;;;;;;4.00;3.35;;;25.60;65.80;;;;;;5003578;28;20382;-87
2023/09/10 00:54:49;;;;;;;5.78;3.28;;;25.60;66.00;;;;;;5003224;28;20038;-87
2023/09/10 00:57:15;;;;;;;5.50;3.72;;;25.50;66.10;;;;;;5020130;28;20033;-88
2023/09/10 00:59:42;;;;;;;4.80;3.75;;;25.50;66.00;;;;;;5019683;28;20038;-89
2023/09/10 01:02:09;;;;;;;4.68;3.65;;;25.50;66.00;;;;;;5019929;28;20068;-89
2023/09/10 01:04:34;;;;;;;6.28;3.60;;;25.50;66.20;;;;;;5003618;28;20060;-89
2023/09/10 01:07:01;;;;;;;6.22;3.95;;;25.40;66.30;;;;;;5020197;28;20531;-90
2023/09/10 01:09:27;;;;;;;5.60;3.85;;;25.40;66.40;;;;;;5020134;28;20042;-88
2023/09/10 01:12:12;;;;;;;6.13;3.83;;;25.30;66.10;;;;;;5020417;28;20036;-89
2023/09/10 01:14:50;;;;;;;5.82;3.85;;;25.40;66.20;;;;;;5038253;28;20045;-89
2023/09/10 01:17:25;;;;;;;5.85;4.20;;;25.30;66.20;;;;;;5037902;28;20481;-86
2023/09/10 01:19:50;;;;;;;4.07;3.65;;;25.30;66.60;;;;;;5042210;28;20034;-90
2023/09/10 01:22:51;;;;;;;4.20;3.50;;;25.30;66.60;;;;;;5022532;28;20042;-89
2023/09/10 01:25:18;;;;;;;4.60;3.63;;;25.20;66.50;;;;;;5006634;28;20034;-90
2023/09/10 01:27:45;;;;;;;5.43;4.20;;;25.20;66.60;;;;;;5004656;28;20081;-91
2023/09/10 01:30:11;;;;;;;4.65;3.40;;;25.20;66.60;;;;;;5018793;28;20088;-90
2023/09/10 01:32:47;;;;;;;5.43;4.10;;;25.10;66.60;;;;;;5025185;28;20053;-89
2023/09/10 01:35:20;;;;;;;5.57;4.38;;;25.00;66.90;;;;;;5022504;28;20056;-89
2023/09/10 01:38:06;;;;;;;5.20;3.92;;;24.90;66.80;;;;;;5018370;28;20033;-88
2023/09/10 01:40:38;;;;;;;4.47;3.38;;;24.90;67.00;;;;;;5021586;28;20029;-89
2023/09/10 01:43:06;;;;;;;4.75;3.53;;;24.90;67.00;;;;;;5019419;28;20088;-87
2023/09/10 01:45:34;;;;;;;4.00;3.40;;;24.90;67.00;;;;;;5024555;28;20026;-88
2023/09/10 01:48:01;;;;;;;4.00;3.30;;;24.90;67.00;;;;;;5037497;28;20385;-88
2023/09/10 01:50:29;;;;;;;5.45;3.33;;;24.90;67.20;;;;;;5036108;28;20071;-88
2023/09/10 01:52:57;;;;;;;4.60;3.22;;;24.80;66.90;;;;;;5035906;28;20033;-86
2023/09/10 01:55:23;;;;;;;5.15;3.50;;;24.90;66.90;;;;;;5035981;28;20117;-87
2023/09/10 01:57:48;;;;;;;6.07;3.38;;;24.90;66.90;;;;;;5013991;28;20057;-87
2023/09/10 02:00:14;;;;;;;5.60;3.75;;;24.90;66.90;;;;;;5036096;28;20033;-83
2023/09/10 02:02:40;;;;;;;4.40;3.20;;;24.90;66.80;;;;;;5035557;28;20038;-85
2023/09/10 02:05:06;;;;;;;4.88;3.47;;;24.90;66.90;;;;;;5035043;28;20112;-86
2023/09/10 02:07:32;;;;;;;4.18;3.10;;;24.80;66.80;;;;;;5035678;28;20485;-85
2023/09/10 02:10:00;;;;;;;7.15;3.13;;;24.80;66.80;;;;;;5024837;28;20045;-88
2023/09/10 02:12:26;;;;;;;5.03;3.10;;;24.80;67.00;;;;;;5015538;28;20052;-86
2023/09/10 02:14:53;;;;;;;5.68;3.67;;;24.80;66.90;;;;;;5022123;28;20060;-86
2023/09/10 02:17:18;;;;;;;4.85;3.63;;;24.80;66.90;;;;;;5035683;28;20029;-88
2023/09/10 02:19:44;;;;;;;4.85;3.30;;;24.80;67.20;;;;;;5035291;28;20037;-87
2023/09/10 02:22:10;;;;;;;4.15;2.70;;;24.80;67.10;;;;;;5035489;28;20040;-84
2023/09/10 02:24:35;;;;;;;3.92;2.80;;;24.80;66.90;;;;;;5035293;28;20477;-86
2023/09/10 02:27:01;;;;;;;4.22;3.25;;;24.80;67.00;;;;;;5035218;28;20064;-85
2023/09/10 02:29:27;;;;;;;4.22;3.13;;;24.80;67.10;;;;;;5024661;28;20500;-83
2023/09/10 02:31:53;;;;;;;3.72;3.33;;;24.80;67.10;;;;;;5022845;28;20030;-84
2023/09/10 02:34:18;;;;;;;7.55;3.60;;;24.80;67.10;;;;;;5014871;28;20096;-83
2023/09/10 02:36:44;;;;;;;3.92;3.38;;;24.80;67.00;;;;;;5014654;28;20034;-83
2023/09/10 02:39:09;;;;;;;5.47;3.40;;;24.80;66.90;;;;;;5019599;28;20038;-83
2023/09/10 02:41:35;;;;;;;4.88;3.05;;;24.80;67.00;;;;;;5015491;28;20030;-84
2023/09/10 02:44:01;;;;;;;3.85;3.03;;;24.70;67.30;;;;;;5015202;28;20405;-83
2023/09/10 02:46:27;;;;;;;3.95;3.20;;;24.80;67.20;;;;;;5018569;28;20402;-83
2023/09/10 02:48:53;;;;;;;4.90;3.58;;;24.80;67.20;;;;;;5020007;28;20429;-83
2023/09/10 02:51:19;;;;;;;4.78;3.53;;;24.70;67.20;;;;;;5034402;28;20068;-84
2023/09/10 02:53:44;;;;;;;5.93;3.35;;;24.70;67.20;;;;;;5030466;28;20053;-83
2023/09/10 02:56:10;;;;;;;4.03;3.35;;;24.70;67.20;;;;;;5014268;28;20350;-84
2023/09/10 02:58:36;;;;;;;4.13;3.03;;;24.70;67.20;;;;;;5020759;28;20109;-84
2023/09/10 03:01:03;;;;;;;3.47;2.75;;;24.70;67.30;;;;;;5014578;28;20046;-84
2023/09/10 03:03:29;;;;;;;4.60;3.33;;;24.70;67.30;;;;;;5024640;28;20037;-85
2023/09/10 03:05:55;;;;;;;5.47;3.60;;;24.70;67.30;;;;;;5034469;28;20398;-85
2023/09/10 03:08:20;;;;;;;4.72;3.33;;;24.70;67.20;;;;;;5034449;28;20412;-83
2023/09/10 03:10:46;;;;;;;6.18;3.20;;;24.70;67.20;;;;;;5014242;28;20046;-83
2023/09/10 03:13:12;;;;;;;4.00;3.40;;;24.70;67.10;;;;;;5015796;28;20099;-83
2023/09/10 03:15:37;;;;;;;4.68;3.00;;;24.80;67.10;;;;;;5015680;28;20382;-84
2023/09/10 03:18:03;;;;;;;4.00;3.00;;;24.70;67.10;;;;;;4995948;28;20125;-84
2023/09/10 03:20:29;;;;;;;5.95;3.28;;;24.70;67.30;;;;;;5014429;28;20033;-85
2023/09/10 03:22:58;;;;;;;5.28;3.33;;;24.70;67.40;;;;;;5020222;28;20539;-86
2023/09/10 03:25:24;;;;;;;3.53;3.10;;;24.70;67.30;;;;;;5015463;28;20045;-84
2023/09/10 03:27:50;;;;;;;4.85;2.95;;;24.70;67.20;;;;;;5014268;28;20371;-85
2023/09/10 03:30:18;;;;;;;3.67;2.90;;;24.70;67.20;;;;;;5014444;28;20045;-85
2023/09/10 03:32:44;;;;;;;4.00;3.15;;;24.70;67.00;;;;;;5014489;28;20061;-84
2023/09/10 03:35:12;;;;;;;5.70;3.28;;;24.60;67.10;;;;;;5023234;28;20131;-85
2023/09/10 03:37:38;;;;;;;4.40;3.10;;;24.70;67.00;;;;;;5022791;28;20033;-84
2023/09/10 03:40:05;;;;;;;6.18;3.25;;;24.70;66.90;;;;;;5013543;28;20121;-83
2023/09/10 03:42:33;;;;;;;5.57;2.90;;;24.70;66.80;;;;;;5014147;28;20038;-84
2023/09/10 03:44:59;;;;;;;3.70;3.33;;;24.70;66.60;;;;;;5024702;28;20033;-86
2023/09/10 03:47:28;;;;;;;6.60;3.72;;;24.70;66.50;;;;;;5010461;28;20049;-85
2023/09/10 03:49:53;;;;;;;4.20;3.50;;;24.60;66.80;;;;;;5000793;28;20053;-84
2023/09/10 03:52:20;;;;;;;6.00;3.08;;;24.50;67.10;;;;;;5002930;28;20041;-88
2023/09/10 03:54:46;;;;;;;5.57;3.17;;;24.40;67.20;;;;;;5034230;28;20575;-89
2023/09/10 03:57:12;;;;;;;4.70;3.83;;;24.40;67.60;;;;;;5034498;28;20038;-88
2023/09/10 03:59:37;;;;;;;4.88;3.00;;;24.30;68.00;;;;;;5021165;28;20084;-88
2023/09/10 04:02:04;;;;;;;3.95;2.88;;;24.20;68.10;;;;;;4997199;28;20401;-88
2023/09/10 04:04:29;;;;;;;7.32;3.70;;;24.20;68.40;;;;;;5034592;28;20385;-89
2023/09/10 04:06:55;;;;;;;3.75;3.10;;;24.20;68.70;;;;;;5034029;28;20041;-90
2023/09/10 04:09:21;;;;;;;4.22;2.90;;;24.10;69.00;;;;;;5034116;28;20034;-88
2023/09/10 04:11:46;;;;;;;4.65;3.67;;;24.10;69.10;;;;;;5033883;28;20477;-88
2023/09/10 04:14:12;;;;;;;4.88;3.92;;;24.00;69.60;;;;;;5033753;28;20740;-86
2023/09/10 04:16:37;;;;;;;6.20;4.32;;;23.90;69.80;;;;;;5033509;28;20366;-85
2023/09/10 04:19:03;;;;;;;5.40;4.18;;;23.70;70.30;;;;;;5033590;28;20033;-84
2023/09/10 04:21:29;;;;;;;6.00;3.92;;;23.60;71.00;;;;;;5016016;28;20034;-83
2023/09/10 04:23:54;;;;;;;5.20;3.38;;;23.50;71.10;;;;;;5034014;28;20060;-86
2023/09/10 04:26:20;;;;;;;3.72;3.22;;;23.50;70.60;;;;;;5034187;28;20033;-86
2023/09/10 04:28:46;;;;;;;5.05;3.45;;;23.60;70.70;;;;;;5035497;28;20038;-88
2023/09/10 04:31:14;;;;;;;7.57;4.00;;;23.60;70.60;;;;;;5037368;28;20049;-85
2023/09/10 04:33:39;;;;;;;6.05;4.10;;;23.60;70.80;;;;;;5036675;28;20065;-81
2023/09/10 04:36:05;;;;;;;6.22;3.67;;;23.60;70.70;;;;;;5029234;28;20065;-82
2023/09/10 04:38:31;;;;;;;6.25;3.92;;;23.60;70.60;;;;;;5038765;28;20033;-90
2023/09/10 04:40:56;;;;;;;6.43;4.25;;;23.60;71.00;;;;;;5038231;28;20034;-89
2023/09/10 04:43:22;;;;;;;3.50;3.05;;;23.50;71.30;;;;;;5019468;28;20037;-86
2023/09/10 04:45:48;;;;;;;3.88;3.47;;;23.50;71.30;;;;;;5037421;28;20030;-85
2023/09/10 04:48:14;;;;;;;4.80;3.85;;;23.40;71.50;;;;;;5007930;28;20092;-86
2023/09/10 04:50:40;;;;;;;4.32;3.78;;;23.40;71.40;;;;;;4999763;28;20129;-85
2023/09/10 04:53:06;;;;;;;6.03;3.53;;;23.40;71.50;;;;;;5017268;28;20045;-85
2023/09/10 04:55:32;;;;;;;5.93;3.50;;;23.30;71.50;;;;;;4999373;28;20064;-84
2023/09/10 04:57:58;;;;;;;3.95;3.20;;;23.30;71.60;;;;;;5016869;28;20091;-85
2023/09/10 05:00:23;;;;;;;7.70;4.68;;;23.30;71.50;;;;;;5016902;28;20029;-85
2023/09/10 05:02:49;;;;;;;3.30;2.90;;;23.30;72.00;;;;;;5016867;28;20117;-85
2023/09/10 05:05:14;;;;;;;4.13;3.03;;;23.20;71.60;;;;;;5016443;28;20104;-85
2023/09/10 05:07:40;;;;;;;4.57;3.33;;;23.20;71.60;;;;;;5016701;28;20042;-85
2023/09/10 05:10:06;;;;;;;6.00;4.10;;;23.30;71.60;;;;;;5016883;28;20088;-85
2023/09/10 05:12:32;;;;;;;3.92;3.53;;;23.30;71.60;;;;;;5021203;28;20040;-85
2023/09/10 05:14:58;;;;;;;3.45;3.15;;;23.40;71.70;;;;;;5017985;28;20409;-86
2023/09/10 05:17:23;;;;;;;5.90;3.80;;;23.30;71.40;;;;;;5017982;28;20034;-87
2023/09/10 05:19:50;;;;;;;4.63;3.78;;;23.40;71.60;;;;;;5018511;28;20029;-86
2023/09/10 05:22:16;;;;;;;4.13;3.65;;;23.30;71.30;;;;;;5014913;28;20375;-86
2023/09/10 05:24:42;;;;;;;3.75;2.47;;;23.30;71.70;;;;;;5027389;28;20045;-86
2023/09/10 05:27:07;;;;;;;4.20;2.88;;;23.30;71.40;;;;;;5015813;28;20037;-88
2023/09/10 05:29:33;;;;;;;5.20;3.00;;;23.30;71.60;;;;;;5016337;28;20060;-88
2023/09/10 05:31:59;;;;;;;3.75;3.25;;;23.30;71.90;;;;;;5016283;28;20038;-87
2023/09/10 05:34:24;;;;;;;6.30;3.30;;;23.30;72.20;;;;;;5016390;28;20030;-88
2023/09/10 05:36:51;;;;;;;5.57;4.07;;;23.30;72.00;;;;;;4997560;28;20478;-89
2023/09/10 05:39:17;;;;;;;4.05;3.22;;;23.20;72.40;;;;;;5016097;28;20030;-89
2023/09/10 05:41:42;;;;;;;6.65;4.20;;;23.20;72.20;;;;;;5015654;28;20040;-88
2023/09/10 05:44:08;;;;;;;5.95;4.20;;;23.20;72.50;;;;;;4998396;28;20037;-89
2023/09/10 05:46:34;;;;;;;4.38;3.25;;;23.20;72.40;;;;;;4998294;28;20038;-88
2023/09/10 05:48:59;;;;;;;9.73;4.28;;;23.20;72.00;;;;;;5016548;28;20088;-88
2023/09/10 05:51:25;;;;;;;4.80;3.17;;;23.20;72.40;;;;;;4998155;28;20557;-88
2023/09/10 05:53:51;;;;;;;7.25;4.00;;;23.20;72.40;;;;;;4998017;28;20113;-85
2023/09/10 05:56:16;;;;;;;5.22;4.28;;;23.20;72.40;;;;;;5015450;28;20074;-83
2023/09/10 05:58:42;;;;;;;4.65;3.10;;;23.20;72.40;;;;;;5014701;28;20053;-84
2023/09/10 06:01:08;;;;;;;3.80;3.20;;;23.30;72.30;;;;;;5025054;28;20049;-80
2023/09/10 06:03:34;;;;;;;4.45;3.53;;;23.30;72.20;;;;;;5017265;28;20032;-80
2023/09/10 06:06:01;;;;;;;5.25;3.83;;;23.30;72.50;;;;;;5024993;28;20045;-80
2023/09/10 06:08:31;;;;;;;5.65;3.92;;;23.30;72.40;;;;;;5019713;28;20041;-80
2023/09/10 06:10:56;;;;;;;6.75;3.55;;;23.40;72.70;;;;;;5015626;28;20150;-80
2023/09/10 06:13:22;;;;;;;5.28;4.20;;;23.40;72.40;;;;;;5032503;28;20069;-81
2023/09/10 06:15:48;;;;;;;4.10;3.22;;;23.50;72.30;;;;;;5031497;28;20048;-80
2023/09/10 06:18:14;;;;;;;4.22;2.72;;;23.50;72.10;;;;;;5024676;28;20037;-83
2023/09/10 06:20:40;;;;;;;4.70;3.63;;;23.60;72.10;;;;;;5014839;28;20121;-83
2023/09/10 06:23:05;;;;;;;4.85;3.42;;;23.70;72.10;;;;;;5033892;28;20030;-83
2023/09/10 06:25:33;;;;;;;5.03;2.85;;;23.70;72.00;;;;;;5023036;28;20457;-82
2023/09/10 06:27:58;;;;;;;2.85;2.58;;;23.80;72.00;;;;;;5015174;28;20037;-83
2023/09/10 06:30:24;;;;;;;6.38;4.15;;;23.80;71.90;;;;;;5014767;28;20054;-84
2023/09/10 06:32:50;;;;;;;3.50;3.00;;;24.00;72.00;;;;;;5021397;28;20469;-83
2023/09/10 06:35:16;;;;;;;3.72;3.03;;;24.00;71.70;;;;;;5017953;28;20069;-82
2023/09/10 06:37:42;;;;;;;4.53;3.78;;;24.00;71.70;;;;;;5018819;28;20112;-85
2023/09/10 06:40:09;;;;;;;4.55;3.25;;;24.10;71.80;;;;;;5018912;28;20025;-85
2023/09/10 06:42:34;;;;;;;3.92;3.15;;;24.10;71.50;;;;;;4996577;28;20036;-86
2023/09/10 06:45:00;;;;;;;4.82;3.50;;;24.20;71.70;;;;;;5023550;28;20049;-85
2023/09/10 06:47:27;;;;;;;7.60;4.25;;;24.20;71.70;;;;;;5013731;28;20124;-84
2023/09/10 06:49:53;;;;;;;3.65;3.13;;;24.20;71.70;;;;;;5019918;28;20091;-84
2023/09/10 06:52:18;;;;;;;4.70;3.13;;;24.40;71.70;;;;;;5016088;28;20038;-85
2023/09/10 06:54:44;;;;;;;5.57;3.80;;;24.40;71.60;;;;;;5014539;28;20038;-84
2023/09/10 06:57:10;;;;;;;4.47;3.58;;;24.40;71.60;;;;;;5014529;28;20092;-86
2023/09/10 06:59:35;;;;;;;5.30;3.78;;;24.40;71.60;;;;;;5014654;28;20390;-85
2023/09/10 07:02:01;;;;;;;5.07;3.10;;;24.50;71.90;;;;;;5029812;28;20040;-88
2023/09/10 07:04:27;;;;;;;3.83;2.90;;;24.60;71.60;;;;;;5014003;28;20510;-88
2023/09/10 07:06:53;;;;;;;4.25;3.17;;;24.70;71.50;;;;;;5014429;28;20386;-87
2023/09/10 07:09:23;;;;;;;3.53;3.10;;;24.70;71.90;;;;;;5007626;28;20091;-85
2023/09/10 07:11:50;;;;;;;4.63;3.30;;;24.80;71.80;;;;;;5021863;28;20037;-88
2023/09/10 07:14:16;;;;;;;3.72;3.20;;;24.90;71.90;;;;;;5013865;28;20263;-88
2023/09/10 07:16:43;;;;;;;3.25;2.95;;;24.90;71.70;;;;;;4995862;28;20030;-88
2023/09/10 07:19:09;;;;;;;4.90;3.85;;;24.90;71.60;;;;;;5013600;28;20039;-89
2023/09/10 07:21:35;;;;;;;5.15;3.75;;;25.00;72.20;;;;;;4995999;28;20037;-87
2023/09/10 07:24:06;;;;;;;3.50;3.20;;;25.10;71.60;;;;;;5013995;28;20529;-87
2023/09/10 07:26:35;;;;;;;5.93;3.72;;;25.10;71.30;;;;;;5013060;28;20041;-87
2023/09/10 07:29:00;;;;;;;4.53;3.33;;;25.20;70.90;;;;;;5013958;28;20435;-87
2023/09/10 07:31:26;;;;;;;7.03;3.88;;;25.30;70.80;;;;;;5011143;28;20121;-88
2023/09/10 07:33:52;;;;;;;4.25;3.47;;;25.40;70.60;;;;;;4993075;28;20040;-87
2023/09/10 07:36:17;;;;;;;3.85;3.28;;;25.40;70.50;;;;;;4993973;28;20446;-87
2023/09/10 07:38:43;;;;;;;6.35;3.30;;;25.50;70.10;;;;;;4994402;28;20098;-87
2023/09/10 07:41:09;;;;;;;5.85;3.08;;;25.60;70.10;;;;;;4995021;28;20511;-87
2023/09/10 07:43:35;;;;;;;6.93;3.38;;;25.70;69.80;;;;;;5014141;28;20092;-88
2023/09/10 07:46:00;;;;;;;4.40;3.50;;;25.80;69.10;;;;;;5013562;28;20038;-88
2023/09/10 07:48:26;;;;;;;4.50;3.22;;;25.90;68.90;;;;;;5013737;28;20109;-87
2023/09/10 07:50:56;;;;;;;3.78;3.30;;;26.00;68.60;;;;;;5014445;28;20451;-88
2023/09/10 07:53:22;;;;;;;3.63;2.72;;;26.10;68.20;;;;;;5013962;28;20030;-87
2023/09/10 07:55:48;;;;;;;6.22;2.78;;;26.20;68.30;;;;;;5009166;28;20592;-87
2023/09/10 07:58:13;;;;;;;5.68;3.05;;;26.30;67.90;;;;;;4996479;28;20058;-87
2023/09/10 08:00:40;;;;;;;6.05;3.60;;;26.40;67.80;;;;;;4996518;28;20131;-86
2023/09/10 08:03:06;;;;;;;6.10;3.28;;;26.50;68.10;;;;;;5014257;28;20034;-88
2023/09/10 08:05:35;;;;;;;3.25;2.85;;;26.60;68.50;;;;;;5018197;28;20037;-88
2023/09/10 08:08:05;;;;;;;9.18;3.15;;;26.80;67.90;;;;;;5028597;28;20034;-87
2023/09/10 08:10:32;;;;;;;3.22;2.92;;;26.90;67.50;;;;;;5000193;28;20129;-87
2023/09/10 08:12:58;;;;;;;4.47;3.05;;;27.00;67.30;;;;;;5017303;28;20057;-87
2023/09/10 08:15:24;;;;;;;4.68;3.30;;;27.10;66.90;;;;;;5016962;28;20038;-87
2023/09/10 08:17:54;;;;;;;3.60;2.90;;;27.20;65.50;;;;;;5017296;28;20100;-88
2023/09/10 08:20:20;;;;;;;3.22;2.92;;;27.30;66.10;;;;;;4999889;28;20079;-88
2023/09/10 08:22:46;;;;;;;3.85;3.10;;;27.50;66.50;;;;;;5003012;28;20486;-88
2023/09/10 08:25:11;;;;;;;4.63;3.42;;;27.60;66.50;;;;;;5005668;28;20050;-88
2023/09/10 08:27:37;;;;;;;3.42;3.05;;;27.70;65.90;;;;;;5017376;28;20030;-88
2023/09/10 08:30:06;;;;;;;3.95;2.92;;;27.80;65.40;;;;;;5001494;28;20076;-87
2023/09/10 08:32:35;;;;;;;3.00;2.63;;;27.90;65.10;;;;;;5017006;28;20038;-87
2023/09/10 08:35:01;;;;;;;3.42;2.70;;;28.00;64.90;;;;;;5017078;28;20096;-87
2023/09/10 08:37:27;;;;;;;3.90;2.97;;;28.10;64.90;;;;;;5017202;28;20033;-87
2023/09/10 08:39:53;;;;;;;4.85;3.25;;;28.20;63.90;;;;;;5007136;28;20124;-87
2023/09/10 08:42:37;;;;;;;4.00;3.15;;;28.30;63.60;;;;;;5017307;28;20034;-87
2023/09/10 08:45:09;;;;;;;4.75;3.13;;;28.40;63.70;;;;;;5015873;28;20038;-87
2023/09/10 08:47:40;;;;;;;9.50;3.25;;;28.50;63.90;;;;;;5015561;28;20110;-89
2023/09/10 08:50:10;;;;;;;3.85;2.67;;;28.60;62.60;;;;;;5016691;28;20034;-89
2023/09/10 08:52:42;;;;;;;4.47;2.67;;;28.70;63.50;;;;;;5017455;28;20034;-89
2023/09/10 08:55:08;;;;;;;5.07;3.50;;;28.80;62.90;;;;;;4979881;28;20105;-88
2023/09/10 08:57:39;;;;;;;5.45;3.30;;;28.90;62.50;;;;;;4997162;28;20378;-88
2023/09/10 09:00:15;;;;;;;7.03;3.40;;;29.10;62.10;;;;;;4996143;28;20039;-89
2023/09/10 09:02:45;;;;;;;4.43;2.95;;;29.10;61.90;;;;;;5015850;28;20038;-88
2023/09/10 09:05:11;;;;;;;5.70;3.45;;;29.20;62.10;;;;;;4999372;28;20041;-88
2023/09/10 09:07:50;;;;;;;3.17;2.63;;;29.30;61.30;;;;;;5016644;28;20032;-88
2023/09/10 09:10:21;;;;;;;3.33;3.00;;;29.40;61.70;;;;;;4999113;28;20034;-88
2023/09/10 09:12:52;;;;;;;8.27;3.05;;;29.50;61.40;;;;;;5011683;28;20402;-89
2023/09/10 09:15:19;;;;;;;3.08;2.78;;;29.60;61.30;;;;;;5014641;28;20034;-88
2023/09/10 09:17:46;;;;;;;4.55;2.97;;;29.70;60.20;;;;;;5016239;28;20145;-89
2023/09/10 09:20:16;;;;;;;3.30;3.00;;;29.80;59.80;;;;;;5016269;28;20034;-88
2023/09/10 09:22:47;;;;;;;2.85;2.38;;;29.90;59.50;;;;;;4997939;28;20030;-88
2023/09/10 09:25:14;;;;;;;3.63;2.60;;;30.00;58.80;;;;;;5016647;28;20049;-89
2023/09/10 09:27:41;;;;;;;3.67;2.50;;;30.10;58.70;;;;;;4999405;28;20133;-89
2023/09/10 09:30:07;;;;;;;3.65;3.00;;;30.20;58.70;;;;;;5016577;28;20069;-88
2023/09/10 09:32:37;;;;;;;3.97;2.85;;;30.20;58.30;;;;;;4999317;28;20124;-88
2023/09/10 09:35:04;;;;;;;4.85;2.80;;;30.40;58.20;;;;;;5012344;28;20077;-87
2023/09/10 09:37:33;;;;;;;3.65;2.50;;;30.40;58.30;;;;;;4998144;28;20070;-87
2023/09/10 09:39:59;;;;;;;2.80;2.53;;;30.50;58.00;;;;;;5015844;28;20034;-89
2023/09/10 09:42:25;;;;;;;7.55;2.85;;;30.60;57.80;;;;;;5020044;28;20034;-86
2023/09/10 09:44:51;;;;;;;5.35;2.95;;;30.70;58.00;;;;;;5015540;28;20389;-87
2023/09/10 09:47:17;;;;;;;4.45;2.78;;;30.80;57.30;;;;;;5015851;28;20116;-89
2023/09/10 09:49:44;;;;;;;3.03;2.72;;;30.80;56.80;;;;;;5007306;28;20068;-90
2023/09/10 09:52:11;;;;;;;3.75;2.78;;;30.90;56.60;;;;;;5020696;28;20148;-90
2023/09/10 09:54:37;;;;;;;11.13;2.65;;;31.00;57.00;;;;;;5015331;28;20112;-89
2023/09/10 09:57:04;;;;;;;3.13;2.72;;;31.10;56.60;;;;;;5015397;28;20108;-89
2023/09/10 09:59:33;;;;;;;6.30;3.25;;;31.20;55.90;;;;;;5004875;28;20581;-90
2023/09/10 10:01:59;;;;;;;3.13;2.25;;;31.30;56.30;;;;;;5015304;28;20538;-90
2023/09/10 10:04:25;;;;;;;5.28;2.80;;;31.50;56.80;;;;;;5014527;28;20110;-89
2023/09/10 10:06:51;;;;;;;4.85;3.00;;;31.60;56.00;;;;;;5015494;28;20406;-90
2023/09/10 10:09:19;;;;;;;5.25;2.50;;;31.70;55.80;;;;;;5015070;28;20116;-89
2023/09/10 10:11:44;;;;;;;2.30;2.10;;;31.70;55.00;;;;;;5014943;28;20062;-89
2023/09/10 10:14:11;;;;;;;4.30;2.65;;;31.90;55.40;;;;;;4997134;28;20123;-90
2023/09/10 10:16:37;;;;;;;4.10;2.80;;;32.00;55.30;;;;;;5014872;28;20029;-89
2023/09/10 10:19:04;;;;;;;3.58;2.80;;;32.00;53.50;;;;;;5016025;28;20052;-90
2023/09/10 10:21:30;;;;;;;6.55;2.80;;;32.10;53.90;;;;;;5026574;28;20038;-89
2023/09/10 10:23:57;;;;;;;3.50;2.40;;;32.10;53.90;;;;;;5005509;28;20030;-89
2023/09/10 10:26:24;;;;;;;3.83;2.63;;;32.30;54.50;;;;;;4998400;28;20064;-89
2023/09/10 10:28:50;;;;;;;4.30;2.70;;;32.50;54.70;;;;;;5015509;28;20100;-91
2023/09/10 10:31:19;;;;;;;2.78;2.45;;;32.60;53.30;;;;;;5015034;28;20042;-80
2023/09/10 10:34:09;;;;;;;3.25;2.60;;;32.70;53.90;;;;;;5014795;28;20037;-86
2023/09/10 10:36:53;;;;;;;;;;;32.90;53.70;;;;;;5011757;28;20037;-82
2023/09/10 10:39:31;;;;;;;4.60;2.80;;;33.00;53.60;;;;;;5009716;28;19991;-82
2023/09/10 10:42:00;;;;;;;2.85;2.50;;;33.10;53.90;;;;;;5018202;28;20044;-82
2023/09/10 10:44:37;;;;;;;4.03;2.70;;;33.30;53.60;;;;;;5020151;28;20037;-82
2023/09/10 10:47:17;;;;;;;3.92;2.88;;;33.40;53.00;;;;;;5018801;28;20077;-82
2023/09/10 10:49:54;;;;;;;3.45;2.67;;;33.50;52.90;;;;;;5022852;28;20072;-82
2023/09/10 10:52:24;;;;;;;3.30;3.00;;;33.70;52.80;;;;;;5011879;28;20077;-82
2023/09/10 10:54:51;;;;;;;4.05;2.90;;;33.70;52.50;;;;;;5023311;28;20125;-82
2023/09/10 10:57:20;;;;;;;4.82;2.55;;;33.80;52.50;;;;;;5002241;28;20442;-82
2023/09/10 10:59:46;;;;;;;3.17;2.80;;;34.00;52.30;;;;;;5009270;28;20389;-82
2023/09/10 11:02:21;;;;;;;5.18;3.15;;;34.10;52.00;;;;;;5019341;28;20052;-82
2023/09/10 11:04:59;;;;;;;4.07;2.72;;;34.30;52.50;;;;;;5013824;28;20030;-82
2023/09/10 11:07:26;;;;;;;3.42;2.83;;;34.40;52.20;;;;;;5013772;28;20116;-82
2023/09/10 11:09:52;;;;;;;4.97;3.50;;;34.60;52.40;;;;;;5014443;28;20112;-82
2023/09/10 11:12:18;;;;;;;5.38;3.17;;;34.60;52.60;;;;;;5015871;28;20116;-82
2023/09/10 11:14:59;;;;;;;4.07;3.00;;;34.80;52.60;;;;;;5002024;28;20125;-82
2023/09/10 11:17:35;;;;;;;8.48;3.42;;;34.90;51.30;;;;;;5012267;28;20424;-82
2023/09/10 11:20:03;;;;;;;7.55;2.75;;;34.90;51.90;;;;;;5017306;28;20489;-80
2023/09/10 11:23:05;;;;;;;3.40;3.00;;;35.00;51.90;;;;;;4998173;28;20049;-80
2023/09/10 11:25:31;;;;;;;5.43;3.30;;;35.10;51.70;;;;;;4986180;28;20045;-80
2023/09/10 11:27:57;;;;;;;10.38;3.10;;;35.20;51.80;;;;;;4986218;28;20050;-82
2023/09/10 11:30:23;;;;;;;3.17;2.80;;;35.30;51.80;;;;;;4993563;28;20065;-83
2023/09/10 11:33:09;;;;;;;3.53;2.70;;;35.40;51.60;;;;;;4981011;28;20050;-85
2023/09/10 11:35:37;;;;;;;3.83;3.25;;;35.50;51.00;;;;;;4998023;28;20045;-85
2023/09/10 11:38:03;;;;;;;7.28;3.33;;;35.60;51.00;;;;;;4991969;28;20042;-85
2023/09/10 11:40:28;;;;;;;3.40;3.10;;;35.80;51.30;;;;;;4999979;28;20065;-88
2023/09/10 11:42:55;;;;;;;6.18;2.92;;;36.00;50.90;;;;;;5004899;28;20109;-87
2023/09/10 11:45:21;;;;;;;8.00;3.30;;;36.10;50.30;;;;;;4995862;28;20095;-87
2023/09/10 11:47:49;;;;;;;6.45;3.15;;;36.20;49.80;;;;;;5013063;28;20034;-86
2023/09/10 11:50:21;;;;;;;4.57;3.60;;;36.50;50.10;;;;;;5013008;28;20161;-88
2023/09/10 11:52:47;;;;;;;3.97;2.92;;;36.70;49.30;;;;;;5013266;28;20041;-87
2023/09/10 11:55:14;;;;;;;7.55;3.25;;;36.80;49.40;;;;;;5008858;28;20075;-87
2023/09/10 11:57:40;;;;;;;3.97;3.15;;;37.00;49.00;;;;;;5012754;28;20113;-87
2023/09/10 12:00:06;;;;;;;4.38;2.85;;;37.10;48.90;;;;;;5012562;28;20585;-87
2023/09/10 12:02:32;;;;;;;3.33;2.95;;;37.20;49.10;;;;;;5012889;28;20120;-87
2023/09/10 12:05:02;;;;;;;7.40;3.08;;;37.40;49.20;;;;;;5012501;28;20108;-87
2023/09/10 12:07:28;;;;;;;4.93;3.08;;;37.50;48.80;;;;;;5022913;28;20041;-87
2023/09/10 12:09:53;;;;;;;5.38;2.85;;;37.70;48.90;;;;;;5017319;28;20038;-87
2023/09/10 12:12:32;;;;;;;6.00;3.35;;;37.80;48.10;;;;;;5013366;28;20042;-87
2023/09/10 12:14:58;;;;;;;3.05;2.75;;;37.80;47.40;;;;;;5009603;28;20053;-87
2023/09/10 12:17:24;;;;;;;4.78;3.15;;;37.80;47.90;;;;;;5012477;28;20045;-84
2023/09/10 12:19:51;;;;;;;7.30;2.85;;;37.80;48.20;;;;;;5012814;28;20374;-87
2023/09/10 12:22:19;;;;;;;6.25;3.13;;;37.90;48.20;;;;;;5012462;28;20044;-87
2023/09/10 12:24:45;;;;;;;6.00;3.13;;;38.00;48.30;;;;;;5013266;28;20034;-87
2023/09/10 12:27:13;;;;;;;7.03;3.63;;;38.00;48.60;;;;;;5011062;28;20776;-86
2023/09/10 12:29:40;;;;;;;5.93;2.90;;;38.10;48.10;;;;;;5012802;28;20030;-86
2023/09/10 12:32:06;;;;;;;4.28;3.10;;;38.00;47.20;;;;;;5012153;28;20046;-84
2023/09/10 12:34:32;;;;;;;4.82;3.05;;;38.00;47.70;;;;;;5011534;28;20056;-83
2023/09/10 12:36:58;;;;;;;3.65;2.85;;;38.00;47.60;;;;;;5010480;28;20030;-82
2023/09/10 12:39:26;;;;;;;3.75;2.90;;;38.00;48.00;;;;;;5011411;28;20413;-84
2023/09/10 12:42:01;;;;;;;4.30;3.40;;;38.00;48.00;;;;;;4993467;28;20093;-84
2023/09/10 12:44:31;;;;;;;5.82;3.33;;;38.00;47.60;;;;;;5015974;28;20474;-80
2023/09/10 12:46:58;;;;;;;4.85;3.40;;;37.80;48.10;;;;;;5017780;28;20073;-79
2023/09/10 12:49:24;;;;;;;8.75;3.42;;;37.80;48.20;;;;;;4993503;28;20084;-86